Flight Track Log - Related Links

Times and Time Zones

All times are in EDT time to prevent confusion due to time zone crossing. See the CHQ6175 flight status page for this flight to view local times or setup timezone preferences in your user account.

Time Position Orientation Groundspeed Altitude Reporting Facility
EDT Latitude Longitude Course Direction KTS MPH feet Rate Location/Type
Tue 06:39:54 PM 36.9308 -76.1686 279° West 192 221 1,900  Level Washington Center
Tue 06:40:42 PM 36.9728 -76.1300 36° Northeast 256 295 3,700 2,738 Climbing Washington Center
Tue 06:41:37 PM 37.0142 -76.1642 327° Northwest 233 268 6,600 3,083 Climbing Washington Center
Tue 06:42:00 PM 36.9675 -76.6284 286° West  Level FlightAware Approximate
Tue 06:42:31 PM 37.0097 -76.2394 266° West 244 281 9,300  Level Washington Center
Tue 06:42:50 PM 37.0117 -76.2631 276° West 258 297 9,600 2,051 Climbing Washington Center
Tue 06:43:00 PM 36.9895 -76.7370 282° West  Level FlightAware Approximate
Tue 06:43:50 PM 37.0133 -76.3436 272° West 269 310 12,000  Level Washington Center
Tue 06:44:00 PM 37.0078 -76.8468 282° West  Level FlightAware Approximate
Tue 06:44:50 PM 37.0189 -76.4372 274° West 274 315 14,600  Level Washington Center
Tue 06:45:00 PM 37.0238 -76.9571 279° West  Level FlightAware Approximate
Tue 06:45:48 PM 37.0225 -76.5308 273° West 274 315 16,800  Level Washington Center
Tue 06:46:49 PM 37.0278 -76.6300 274° West 274 315 18,900 1,869 Climbing Washington Center
Tue 06:47:50 PM 37.0331 -76.7314 274° West 280 322 20,600 1,686 Climbing Washington Center
Tue 06:48:50 PM 37.0383 -76.8383 274° West 300 345 22,300 1,729 Climbing Washington Center
Tue 06:49:48 PM 37.0414 -76.9475 272° West 312 359 24,000 1,613 Climbing Washington Center
Tue 06:50:49 PM 37.0483 -77.0594 274° West 318 366 25,500 1,350 Climbing Washington Center
Tue 06:51:48 PM 37.0658 -77.1717 281° West 323 372 26,700 1,210 Climbing Washington Center
Tue 06:52:48 PM 37.0872 -77.2842 283° West 333 383 27,900 1,140 Climbing Washington Center
Tue 06:53:49 PM 37.1064 -77.3992 282° West 333 383 29,000 984 Climbing Washington Center
Tue 06:54:50 PM 37.1444 -77.5044 294° West 333 383 29,900 504 Climbing Washington Center
Tue 06:55:48 PM 37.1967 -77.6125 301° West 339 390 30,000 50 Climbing Washington Center
Tue 06:56:49 PM 37.2492 -77.7158 303° West 350 403 30,000  Level Washington Center
Tue 06:57:50 PM 37.2975 -77.8161 301° West 350 403 30,000  Level Washington Center
Tue 06:58:50 PM 37.3456 -77.9222 300° West 350 403 30,000  Level Washington Center
Tue 06:59:48 PM 37.3956 -78.0281 301° West 350 403 30,000  Level Washington Center
Tue 07:00:48 PM 37.4497 -78.1372 302° West 350 403 30,000  Level Washington Center
Tue 07:01:49 PM 37.5117 -78.2597 303° West 366 421 30,000  Level Washington Center
Tue 07:02:50 PM 37.5614 -78.3689 300° West 366 421 30,000  Level Washington Center
Tue 07:03:50 PM 37.6150 -78.4836 301° West 366 421 30,000  Level Washington Center
Tue 07:04:48 PM 37.6625 -78.5850 301° West 366 421 30,000  Level Washington Center
Tue 07:05:49 PM 37.7139 -78.6972 300° West 371 427 30,000  Level Washington Center
Tue 07:06:49 PM 37.7672 -78.8072 302° West 371 427 30,000  Level Washington Center
Tue 07:07:50 PM 37.8183 -78.9225 299° West 371 427 30,000  Level Washington Center
Tue 07:08:48 PM 37.8733 -79.0458 299° West 371 427 30,000  Level Washington Center
Tue 07:09:49 PM 37.9136 -79.1608 294° West 366 421 30,000  Level Washington Center
Tue 07:10:49 PM 37.9369 -79.2858 283° West 361 415 30,000  Level Washington Center
Tue 07:11:50 PM 37.9564 -79.4000 282° West 368 423 30,000  Level Washington Center
Tue 07:12:50 PM 37.9794 -79.5250 283° West 368 423 30,000  Level Washington Center
Tue 07:13:48 PM 38.0000 -79.6631 281° West 362 417 30,000  Level Washington Center
Tue 07:14:48 PM 38.0228 -79.7883 283° West 362 417 30,000  Level Washington Center
Tue 07:15:49 PM 38.0433 -79.9108 282° West 362 417 30,000  Level Washington Center
Tue 07:16:49 PM 38.0639 -80.0333 282° West 357 411 30,000  Level Washington Center
Tue 07:19:05 PM 38.1092 -80.2975 282° West 362 417 30,000  Level Indianapolis Center
Tue 07:20:07 PM 38.1303 -80.4231 282° West 362 417 30,000  Level Indianapolis Center
Tue 07:21:09 PM 38.1519 -80.5486 282° West 362 417 30,000  Level Indianapolis Center
Tue 07:22:10 PM 38.1778 -80.7008 282° West 364 419 30,000  Level Indianapolis Center
Tue 07:23:12 PM 38.1986 -80.8281 282° West 364 419 30,000  Level Indianapolis Center
Tue 07:24:14 PM 38.2197 -80.9536 282° West 364 419 30,000  Level Indianapolis Center
Tue 07:25:16 PM 38.2400 -81.0806 282° West 364 419 30,000  Level Indianapolis Center
Tue 07:26:18 PM 38.2600 -81.2056 282° West 364 419 30,000  Level Indianapolis Center
Tue 07:27:20 PM 38.3083 -81.3133 300° West 357 411 30,000  Level Indianapolis Center
Tue 07:28:22 PM 38.4114 -81.3606 340° North 390 449 30,000  Level Indianapolis Center
Tue 07:29:24 PM 38.5347 -81.4067 344° North 387 445 30,000  Level Indianapolis Center
Tue 07:30:26 PM 38.6433 -81.4475 344° North 387 445 30,000  Level Indianapolis Center
Tue 07:31:28 PM 38.7472 -81.4881 343° North 387 445 30,000  Level Indianapolis Center
Tue 07:32:29 PM 38.8378 -81.5225 343° North 388 447 30,000  Level Indianapolis Center
Tue 07:33:31 PM 38.9619 -81.5694 344° North 388 447 30,000  Level Indianapolis Center
Tue 07:34:33 PM 39.0644 -81.6089 343° North 388 447 30,000  Level Indianapolis Center
Tue 07:35:35 PM 39.1689 -81.6486 344° North 388 447 30,000  Level Indianapolis Center
Tue 07:36:37 PM 39.2722 -81.6892 343° North 388 447 30,000  Level Indianapolis Center
Tue 07:37:39 PM 39.3753 -81.7292 343° North 388 447 30,000  Level Indianapolis Center
Tue 07:38:41 PM 39.4778 -81.7697 343° North 387 445 30,000  Level Indianapolis Center
Tue 07:39:43 PM 39.5808 -81.8108 343° North 387 445 30,000  Level Indianapolis Center
Tue 07:40:45 PM 39.7042 -81.8589 343° North 386 444 30,000  Level Indianapolis Center
Tue 07:41:47 PM 39.8192 -81.8797 352° North 393 452 30,000  Level Indianapolis Center
Tue 07:42:48 PM 39.9272 -81.9008 351° North 393 452 30,000  Level Indianapolis Center
Tue 07:43:50 PM 40.0358 -81.9206 352° North 393 452 30,000  Level Indianapolis Center
Tue 07:44:52 PM 40.1411 -81.9392 352° North 390 449 30,000  Level Indianapolis Center
Tue 07:45:54 PM 40.2461 -81.9567 353° North 385 443 30,000  Level Indianapolis Center
Tue 07:46:56 PM 40.3514 -81.9758 352° North 382 440 30,000  Level Indianapolis Center
Tue 07:47:58 PM 40.4747 -81.9992 352° North 382 440 30,000  Level Indianapolis Center
Tue 07:49:00 PM 40.5808 -82.0192 352° North 381 438 30,000  Level Indianapolis Center
Tue 07:49:32 PM 40.6336 -82.0283 352° North 380 437 30,000  Level Cleveland Center
Tue 07:50:34 PM 40.7389 -82.0472 352° North 380 437 30,000  Level Cleveland Center
Tue 07:51:36 PM 40.8319 -82.0992 337° Northwest 363 418 30,000 -537 Level Cleveland Center
Tue 07:52:37 PM 40.9175 -82.1622 331° Northwest 347 399 28,900 -1,122 Descending Cleveland Center
Tue 07:53:39 PM 41.0044 -82.2278 330° Northwest 349 402 27,700 -1,161 Descending Cleveland Center
Tue 07:54:41 PM 41.0919 -82.2942 330° Northwest 354 407 26,500 -1,403 Descending Cleveland Center
Tue 07:55:43 PM 41.1769 -82.3581 331° Northwest 349 402 24,800 -1,951 Descending Cleveland Center
Tue 07:56:44 PM 41.2553 -82.4186 330° Northwest 325 374 22,500 -2,146 Descending Cleveland Center
Tue 07:57:46 PM 41.3467 -82.4883 330° Northwest 321 369 20,400 -1,790 Descending Cleveland Center
Tue 07:58:48 PM 41.4306 -82.5528 330° Northwest 338 389 18,800 -1,898 Descending Cleveland Center
Tue 07:59:24 PM 41.4828 -82.5947 329° Northwest 345 397 17,300 -2,226 Descending Cleveland Center
Tue 07:59:50 PM 41.5147 -82.6169 332° Northwest 344 396 16,500 -1,784 Descending Cleveland Center
Tue 08:00:01 PM 41.5264 -82.6283 324° Northwest 345 397 16,200 -1,742 Descending Cleveland Center
Tue 08:00:52 PM 41.5922 -82.6758 332° Northwest 323 372 14,700 -1,770 Descending Cleveland Center
Tue 08:01:02 PM 41.6075 -82.6917 322° Northwest 312 359 14,400 -1,574 Descending Cleveland Center
Tue 08:01:53 PM 41.6681 -82.7347 332° Northwest 298 343 13,100 -1,522 Descending Cleveland Center
Tue 08:02:09 PM 41.6850 -82.7492 328° Northwest 285 328 12,700 -1,065 Descending Cleveland Center
Tue 08:02:55 PM 41.7333 -82.7869 330° Northwest 279 321 12,000 -689 Descending Cleveland Center
Tue 08:03:10 PM 41.7478 -82.8078 313° West 268 308 12,000  Level Cleveland Center
Tue 08:03:57 PM 41.7900 -82.8569 319° Northwest 275 316 12,000  Level Cleveland Center
Tue 08:04:59 PM 41.8517 -82.9297 319° Northwest 292 336 12,000  Level Cleveland Center
Tue 08:05:11 PM 41.8711 -82.9528 319° Northwest 300 345 12,000  Level Cleveland Center
Tue 08:06:01 PM 41.9142 -83.0053 318° Northwest 299 344 12,000  Level Cleveland Center
Tue 08:06:12 PM 41.9342 -83.0314 316° Northwest 305 351 12,000 -774 Level Cleveland Center
Tue 08:07:03 PM 41.9781 -83.0814 320° Northwest 304 350 11,200 -896 Descending Cleveland Center
Tue 08:07:19 PM 42.0053 -83.1169 316° Northwest 308 354 11,000 -194 Descending Cleveland Center
Tue 08:08:05 PM 42.0533 -83.1725 319° Northwest 305 351 11,000  Level Cleveland Center
Tue 08:09:07 PM 42.1264 -83.2225 333° Northwest 318 366 11,000 -581 Level Cleveland Center
Tue 08:10:09 PM 42.2033 -83.2194 North 291 335 9,800 -1,548 Descending Cleveland Center
Tue 08:11:11 PM 42.2697 -83.1661 31° Northeast 286 329 7,800 -1,902 Descending Cleveland Center
Tue 08:12:12 PM 42.3439 -83.1294 20° North 230 265 5,900 -1,935 Descending Cleveland Center
Tue 08:13:15 PM 42.3531 -83.1944 281° West 195 224 3,800 -1,426 Descending Cleveland Center
Tue 08:14:14 PM 42.3281 -83.2517 239° Southwest 165 190 3,000 -750 Descending Cleveland Center
Tue 08:15:15 PM 42.2878 -83.2856 212° Southwest 169 194 2,300 -738 Descending Cleveland Center
Tue 08:16:16 PM 42.2544 -83.3092 208° Southwest 123 142 1,500 -689 Descending Cleveland Center
Tue 08:17:17 PM 42.2236 -83.3300 207° Southwest 124 143 900 -590 Descending Cleveland Center

Login

Don't have an account? Register now (free) for customized features, flight alerts, and more!